tititudorancea.com
Station Historical Data
Daily Summary for October 10, 2018 Units:  Metric    English   Both
« Previous Day
Next Day »
Daily Weekly Monthly Yearly Custom
  High: Low: Average:
Temperature: -17.8 °C 5.4 °C 9.2 °C
Dew Point: -17.8 °C 3.2 °C 5 °C
Humidity: Humidity % 51 % 76 %
Wind Speed: 0 km/h 11.1 km/h 26.9 km/h
Wind Gust: 0 km/h - -
Wind:- - SSW
Pressure: 0 hPa 1017.2 hPa -
Precipitation: 0 mm    
Historical Graphs
 
 
Ararat weather Find more about Weather in Ararat, AU


 



 


Tabular Data for October 10, 2018
Time Temperature Dew Point Pressure Wind Wind Speed Wind Gust Humidity Rainfall Rate (Hourly)
-17.8 °C -17.8 °C 0 hPa Calm     Humidity % 0 mm
00:04 7.5 °C 4.8 °C 1018.2 hPa SSE 24.1 km/h 14.2 km/h 83 % 0 mm
00:09 7.4 °C 4.7 °C 1018.2 hPa SSE 22.2 km/h 13.8 km/h 83 % 0 mm
00:14 7.3 °C 4.6 °C 1018.2 hPa North 31.5 km/h 13.4 km/h 83 % 0 mm
00:19 7.2 °C 4.3 °C 1018.2 hPa South 24.1 km/h 15.3 km/h 82 % 0 mm
00:24 7.2 °C 4.3 °C 1018.2 hPa South 20.4 km/h 12.6 km/h 82 % 0 mm
00:29 7.1 °C 4.4 °C 1018.2 hPa North 22.2 km/h 14.6 km/h 83 % 0 mm
00:34 7.1 °C 4.4 °C 1018.5 hPa South 16.7 km/h 13.2 km/h 83 % 0 mm
00:39 7 °C 4.5 °C 1018.5 hPa North 24.1 km/h 11.6 km/h 84 % 0 mm
00:44 6.9 °C 4.4 °C 1018.5 hPa North 20.4 km/h 14.3 km/h 84 % 0 mm
00:49 7 °C 4.5 °C 1018.5 hPa South 18.5 km/h 8.5 km/h 84 % 0 mm
00:54 6.9 °C 4.3 °C 1018.5 hPa South 16.7 km/h 8 km/h 83 % 0 mm
00:59 6.9 °C 4.2 °C 1018.5 hPa South 16.1 km/h 16.4 km/h 83 % 0 mm
01:04 6.8 °C 4.1 °C 1018.5 hPa South 18.5 km/h 12.6 km/h 83 % 0 mm
01:09 6.7 °C 4.1 °C 1018.5 hPa North 18.5 km/h 11.4 km/h 83 % 0 mm
01:14 6.6 °C 3.9 °C 1018.5 hPa South 20.4 km/h 12.9 km/h 83 % 0 mm
01:19 6.5 °C 4 °C 1018.5 hPa SSE 19.3 km/h 12.6 km/h 84 % 0 mm
01:24 6.4 °C 3.9 °C 1018.5 hPa South 16.7 km/h 12.6 km/h 84 % 0 mm
01:29 6.3 °C 3.9 °C 1018.5 hPa North 22.2 km/h 17.4 km/h 85 % 0 mm
01:34 6.2 °C 3.9 °C 1018.5 hPa SSE 24.1 km/h 14.2 km/h 85 % 0 mm
01:39 6.2 °C 3.8 °C 1018.5 hPa North 25.9 km/h 13.5 km/h 85 % 0 mm
01:44 6.2 °C 3.8 °C 1018.5 hPa SSE 20.9 km/h 10.9 km/h 85 % 0 mm
01:49 6.1 °C 3.8 °C 1018.2 hPa North 22.2 km/h 13.4 km/h 85 % 0 mm
01:54 6.1 °C 3.8 °C 1018.5 hPa North 24.1 km/h 10.3 km/h 85 % 0 mm
01:59 6.1 °C 3.8 °C 1018.2 hPa North 19.3 km/h 17.4 km/h 85 % 0 mm
02:04 6.1 °C 3.8 °C 1018.2 hPa SSE 18.5 km/h 12.7 km/h 85 % 0 mm
02:09 6.1 °C 3.8 °C 1018.2 hPa SSE 20.4 km/h 12.6 km/h 85 % 0 mm
02:14 6.1 °C 3.8 °C 1018.2 hPa North 20.4 km/h 16.6 km/h 85 % 0 mm
02:19 6.2 °C 3.7 °C 1018.2 hPa South 22.5 km/h 13.2 km/h 84 % 0 mm
02:24 6.2 °C 3.7 °C 1018.2 hPa North 20.9 km/h 13.8 km/h 84 % 0 mm
02:29 6.2 °C 3.6 °C 1018.2 hPa North 18.5 km/h 10.9 km/h 83 % 0 mm
02:34 6.3 °C 3.6 °C 1018.2 hPa North 22.2 km/h 9.7 km/h 83 % 0 mm
02:39 6.3 °C 3.6 °C 1018.2 hPa North 22.2 km/h 13.5 km/h 83 % 0 mm
02:44 6.3 °C 3.6 °C 1018.2 hPa SSW 19.3 km/h 16.9 km/h 83 % 0 mm
02:49 6.3 °C 3.6 °C 1018.2 hPa North 24.1 km/h 11.1 km/h 83 % 0 mm
02:54 6.3 °C 3.6 °C 1018.2 hPa South 22.2 km/h 11.9 km/h 83 % 0 mm
02:59 6.2 °C 3.6 °C 1018.2 hPa South 24.1 km/h 13.4 km/h 83 % 0 mm
03:04 6.2 °C 3.7 °C 1017.8 hPa North 24.1 km/h 10.9 km/h 84 % 0 mm
03:09 6.1 °C 3.6 °C 1017.8 hPa South 18.5 km/h 14.8 km/h 84 % 0 mm
03:14 6 °C 3.5 °C 1017.8 hPa South 27.8 km/h 15.6 km/h 84 % 0 mm
03:19 5.9 °C 3.4 °C 1017.5 hPa South 27.8 km/h 19 km/h 84 % 0 mm
03:24 5.8 °C 3.5 °C 1017.5 hPa North 25.9 km/h 14.6 km/h 85 % 0 mm
03:29 5.7 °C 3.4 °C 1017.5 hPa North 27.8 km/h 15.6 km/h 85 % 0 mm
03:34 5.7 °C 3.3 °C 1017.2 hPa North 29.6 km/h 16.9 km/h 85 % 0 mm
03:39 5.6 °C 3.3 °C 1017.2 hPa North 35.2 km/h 22.5 km/h 85 % 0 mm
03:44 5.6 °C 3.3 °C 1017.2 hPa North 31.5 km/h 21.4 km/h 85 % 0 mm
03:49 5.6 °C 3.2 °C 1017.2 hPa North 29 km/h 20.3 km/h 85 % 0 mm
03:54 5.6 °C 3.2 °C 1017.2 hPa South 25.9 km/h 16.9 km/h 85 % 0 mm
03:59 5.6 °C 3.2 °C 1017.5 hPa South 27.8 km/h 22.4 km/h 85 % 0 mm
04:04 5.6 °C 3.2 °C 1017.2 hPa South 29.6 km/h 19.3 km/h 85 % 0 mm
04:09 5.5 °C 3.2 °C 1017.2 hPa North 29.6 km/h 20.1 km/h 85 % 0 mm
04:14 5.4 °C 3.3 °C 1017.2 hPa South 25.7 km/h 16.7 km/h 86 % 0 mm
04:19 5.4 °C 3.3 °C 1017.2 hPa South 27.8 km/h 18.8 km/h 86 % 0 mm
04:24 5.5 °C 3.5 °C 1017.5 hPa South 22.2 km/h 14.2 km/h 87 % 0 mm
04:29 5.6 °C 3.6 °C 1017.5 hPa South 33.3 km/h 13.5 km/h 87 % 0 mm
04:34 5.7 °C 3.7 °C 1017.5 hPa South 27.8 km/h 16.1 km/h 87 % 0 mm
04:39 5.7 °C 3.7 °C 1017.5 hPa South 24.1 km/h 15.8 km/h 87 % 0 mm
04:44 5.8 °C 3.8 °C 1017.5 hPa SSW 29.6 km/h 20.8 km/h 87 % 0 mm
04:49 5.8 °C 3.8 °C 1017.5 hPa South 24.1 km/h 16.9 km/h 87 % 0 mm
04:54 5.8 °C 3.8 °C 1017.5 hPa North 25.9 km/h 17.9 km/h 87 % 0 mm
04:59 5.9 °C 3.9 °C 1017.5 hPa South 25.9 km/h 11.9 km/h 87 % 0 mm
05:04 5.9 °C 4.1 °C 1017.5 hPa South 20.4 km/h 15.1 km/h 88 % 0 mm
05:09 5.9 °C 4.1 °C 1017.5 hPa South 25.9 km/h 17.9 km/h 88 % 0 mm
05:14 6 °C 4.2 °C 1017.5 hPa North 25.9 km/h 12.9 km/h 88 % 0 mm
05:19 6 °C 4.3 °C 1017.5 hPa South 22.2 km/h 13.2 km/h 89 % 0 mm
05:24 6 °C 4.5 °C 1017.5 hPa North 24.1 km/h 16.3 km/h 90 % 0 mm
05:29 6.1 °C 4.6 °C 1017.5 hPa South 29.6 km/h 23.2 km/h 90 % 0 mm
05:34 6.1 °C 4.8 °C 1017.8 hPa North 20.4 km/h 16.7 km/h 91 % 0 mm
05:39 6.2 °C 4.8 °C 1017.8 hPa South 31.5 km/h 23.7 km/h 91 % 0 mm
05:44 6.2 °C 4.9 °C 1017.8 hPa South 31.5 km/h 20.4 km/h 91 % 0 mm
05:49 6.4 °C 5.2 °C 1017.8 hPa North 35.2 km/h 22.7 km/h 92 % 0 mm
05:54 6.6 °C 5.3 °C 1017.8 hPa South 29.6 km/h 15.1 km/h 92 % 0 mm
05:59 6.7 °C 5.4 °C 1017.8 hPa South 29.6 km/h 20.1 km/h 92 % 0 mm
06:04 6.7 °C 5.7 °C 1017.8 hPa South 25.9 km/h 14 km/h 93 % 0 mm
06:09 6.8 °C 5.8 °C 1018.2 hPa South 24.1 km/h 13.7 km/h 93 % 0 mm
06:14 7.1 °C 6 °C 1018.2 hPa South 25.9 km/h 14.6 km/h 93 % 0 mm
06:19 7.2 °C 6.1 °C 1018.2 hPa SSE 22.2 km/h 12.9 km/h 93 % 0 mm
06:24 7.3 °C 6.3 °C 1018.2 hPa South 18.5 km/h 17.7 km/h 93 % 0 mm
06:29 7.4 °C 6.3 °C 1018.2 hPa North 16.1 km/h 14.2 km/h 93 % 0 mm
06:34 7.6 °C 6.7 °C 1018.2 hPa SSE 24.1 km/h 11.1 km/h 94 % 0 mm
06:39 7.8 °C 6.9 °C 1018.5 hPa SSE 18.5 km/h 12.2 km/h 94 % 0 mm
06:44 7.8 °C 6.9 °C 1018.5 hPa SSE 18.5 km/h 10.5 km/h 94 % 0 mm
06:49 7.9 °C 7.1 °C 1018.5 hPa North 18.5 km/h 7.1 km/h 94 % 0 mm
06:54 8.1 °C 7.2 °C 1018.8 hPa North 20.4 km/h 12.6 km/h 94 % 0 mm
06:59 8.3 °C 7.4 °C 1018.8 hPa North 19.3 km/h 13.5 km/h 94 % 0 mm
07:04 8.4 °C 7.5 °C 1018.8 hPa North 18.5 km/h 16.6 km/h 94 % 0 mm
07:09 8.4 °C 7.4 °C 1018.8 hPa SSE 27.8 km/h 12.6 km/h 93 % 0 mm
07:14 8.4 °C 7.4 °C 1019.2 hPa SSE 18.5 km/h 13.8 km/h 93 % 0 mm
07:19 8.5 °C 7.3 °C 1019.2 hPa SE 22.2 km/h 13.2 km/h 92 % 0 mm
07:24 8.6 °C 7.4 °C 1019.2 hPa SE 27.8 km/h 19.6 km/h 92 % 0 mm
07:29 8.7 °C 7.2 °C 1019.5 hPa SE 18.5 km/h 14.8 km/h 90 % 0 mm
07:34 8.8 °C 7.1 °C 1019.5 hPa North 25.9 km/h 21.9 km/h 89 % 0 mm
07:39 8.8 °C 6.9 °C 1019.5 hPa North 24.1 km/h 17.2 km/h 88 % 0 mm
07:44 8.9 °C 6.8 °C 1019.9 hPa SSE 40.7 km/h 18.2 km/h 87 % 0 mm
07:49 8.9 °C 6.5 °C 1019.9 hPa North 31.5 km/h 18.8 km/h 85 % 0 mm
07:54 8.9 °C 6.6 °C 1019.9 hPa SE 33.8 km/h 21.9 km/h 85 % 0 mm
07:59 8.9 °C 7.1 °C 1019.9 hPa SE 22.5 km/h 19 km/h 88 % 0 mm
08:04 8.9 °C 6.4 °C 1020.2 hPa SSE 33.3 km/h 22 km/h 84 % 0 mm
08:09 9.1 °C 6.5 °C 1020.2 hPa North 31.5 km/h 18.5 km/h 84 % 0 mm
08:14 9.1 °C 6.4 °C 1020.2 hPa SSE 38.9 km/h 21.6 km/h 83 % 0 mm
08:19 9.2 °C 6.6 °C 1020.2 hPa SE 27.8 km/h 13.5 km/h 84 % 0 mm
08:24 9.3 °C 6.6 °C 1020.2 hPa SE 31.5 km/h 16.1 km/h 83 % 0 mm
08:29 9.6 °C 6.8 °C 1020.2 hPa SE 27.4 km/h 25.6 km/h 83 % 0 mm
08:34 9.7 °C 6.4 °C 1020.5 hPa SE 40.7 km/h 24.8 km/h 80 % 0 mm
08:39 9.8 °C 6.3 °C 1020.5 hPa SE 42.6 km/h 24.3 km/h 79 % 0 mm
08:42 9.9 °C 6.4 °C 1020.5 hPa SE 29.6 km/h 17.5 km/h 79 % 0 mm
13:14 12.8 °C 5.7 °C 1021.2 hPa SE 31.5 km/h 21.4 km/h 62 % 0 mm
13:19 13.3 °C 5.9 °C 1020.9 hPa SE 33.3 km/h 20.1 km/h 61 % 0 mm
13:24 13.1 °C 5 °C 1020.9 hPa SE 42.6 km/h 26.7 km/h 58 % 0 mm
13:29 12.9 °C 5.1 °C 1020.9 hPa SE 31.5 km/h 22.5 km/h 59 % 0 mm
13:34 13.1 °C 5.4 °C 1020.9 hPa SSE 44.4 km/h 26.4 km/h 60 % 0 mm
13:39 13 °C 5.2 °C 1020.9 hPa SSE 37 km/h 26.2 km/h 59 % 0 mm
13:44 13.1 °C 5.5 °C 1020.9 hPa SE 33.8 km/h 26.4 km/h 60 % 0 mm
13:49 13.2 °C 5.1 °C 1020.5 hPa SE 42.6 km/h 32.5 km/h 58 % 0 mm
13:54 13.3 °C 5.2 °C 1020.5 hPa SE 48.1 km/h 24.5 km/h 58 % 0 mm
13:59 13.4 °C 5.1 °C 1020.5 hPa SSE 37 km/h 21.7 km/h 57 % 0 mm
14:04 13.3 °C 4.5 °C 1020.5 hPa South 40.7 km/h 22.7 km/h 55 % 0 mm
14:09 13.5 °C 4.4 °C 1020.2 hPa SSE 50 km/h 29 km/h 54 % 0 mm
14:14 13.4 °C 4.1 °C 1020.2 hPa SE 42.6 km/h 24.9 km/h 53 % 0 mm
14:19 13.6 °C 5 °C 1020.2 hPa ESE 44.4 km/h 26.4 km/h 56 % 0 mm
14:24 14 °C 5.1 °C 1020.2 hPa SSE 37 km/h 15.8 km/h 55 % 0 mm
14:29 14 °C 4 °C 1020.2 hPa SE 40.7 km/h 31.1 km/h 51 % 0 mm
14:34 14 °C 5.1 °C 1020.2 hPa SE 42.6 km/h 29.8 km/h 55 % 0 mm
14:39 13.9 °C 4.7 °C 1020.2 hPa SE 31.5 km/h 21.9 km/h 54 % 0 mm
14:44 14.2 °C 5.8 °C 1020.2 hPa SE 31.5 km/h 24.8 km/h 57 % 0 mm
14:49 14.2 °C 4.7 °C 1020.2 hPa SE 40.2 km/h 29 km/h 53 % 0 mm
14:54 14.1 °C 5.4 °C 1019.9 hPa SE 27.8 km/h 16.7 km/h 56 % 0 mm
14:59 14.1 °C 5.2 °C 1020.2 hPa SSE 31.5 km/h 19.6 km/h 55 % 0 mm
15:04 14.1 °C 4.6 °C 1020.2 hPa SE 27.8 km/h 16.7 km/h 53 % 0 mm
15:09 14.2 °C 4.8 °C 1020.2 hPa SE 38.9 km/h 24.5 km/h 53 % 0 mm
15:14 14.2 °C 4.8 °C 1019.9 hPa SE 37 km/h 20.1 km/h 53 % 0 mm
15:19 14.2 °C 5.6 °C 1019.9 hPa SE 35.2 km/h 18.2 km/h 56 % 0 mm
15:24 14.3 °C 5.2 °C 1019.9 hPa SSE 33.3 km/h 21.7 km/h 54 % 0 mm
15:29 14.2 °C 4.7 °C 1019.9 hPa ESE 40.7 km/h 29.8 km/h 53 % 0 mm
15:34 14.2 °C 5.8 °C 1019.9 hPa SSE 29.6 km/h 19.2 km/h 57 % 0 mm
15:39 14.1 °C 5.2 °C 1019.5 hPa SSE 44.4 km/h 27.5 km/h 55 % 0 mm
15:44 14 °C 5.3 °C 1019.9 hPa ESE 31.5 km/h 22.7 km/h 56 % 0 mm
15:49 14 °C 5.3 °C 1019.9 hPa SSE 37 km/h 20.8 km/h 56 % 0 mm
15:54 13.9 °C 5.6 °C 1019.9 hPa SSE 38.9 km/h 21.6 km/h 57 % 0 mm
15:59 13.7 °C 5.6 °C 1019.9 hPa SE 30.6 km/h 28.6 km/h 58 % 0 mm
16:04 13.4 °C 5.8 °C 1019.9 hPa SSE 24.1 km/h 16.4 km/h 60 % 0 mm
16:09 13.7 °C 5.6 °C 1019.9 hPa SSE 33.3 km/h 24.1 km/h 58 % 0 mm
16:14 13.2 °C 5.6 °C 1019.9 hPa SSE 29.6 km/h 21.7 km/h 60 % 0 mm
16:19 13.3 °C 5.9 °C 1019.9 hPa SSE 37 km/h 18.5 km/h 61 % 0 mm
16:24 13.3 °C 5.7 °C 1019.9 hPa SSE 42.6 km/h 16.3 km/h 60 % 0 mm
16:29 13.3 °C 5.7 °C 1019.5 hPa SE 37 km/h 21.6 km/h 60 % 0 mm
16:34 13.5 °C 5.9 °C 1019.5 hPa SSE 27.4 km/h 19.8 km/h 60 % 0 mm
16:39 13.5 °C 5.6 °C 1019.5 hPa North 35.2 km/h 20.1 km/h 59 % 0 mm
16:44 13.2 °C 5.4 °C 1019.5 hPa SE 42.6 km/h 27.2 km/h 59 % 0 mm
16:49 13.3 °C 6.2 °C 1019.5 hPa SE 27.8 km/h 21.7 km/h 62 % 0 mm
16:54 13.1 °C 5.3 °C 1019.5 hPa SE 35.2 km/h 22.2 km/h 59 % 0 mm
16:59 13.2 °C 5.3 °C 1019.5 hPa SE 35.2 km/h 24.5 km/h 59 % 0 mm
17:04 13.1 °C 5.4 °C 1019.5 hPa SSE 33.3 km/h 21.1 km/h 60 % 0 mm
17:09 13.1 °C 5.8 °C 1019.5 hPa SSE 25.9 km/h 23.8 km/h 61 % 0 mm
17:14 12.8 °C 5.5 °C 1019.9 hPa SE 38.9 km/h 23.3 km/h 61 % 0 mm
17:19 12.8 °C 5.7 °C 1019.5 hPa SE 37 km/h 17.9 km/h 62 % 0 mm
17:24 12.8 °C 5.7 °C 1019.9 hPa South 33.3 km/h 18.8 km/h 62 % 0 mm
17:29 12.7 °C 5.8 °C 1019.5 hPa SSE 31.5 km/h 13.8 km/h 63 % 0 mm
17:34 13 °C 5.7 °C 1019.5 hPa SE 29.6 km/h 18.2 km/h 61 % 0 mm
17:39 12.9 °C 6 °C 1019.9 hPa SSE 33.3 km/h 22.4 km/h 63 % 0 mm
17:44 12.6 °C 5.9 °C 1019.9 hPa South 31.5 km/h 20.8 km/h 64 % 0 mm
17:49 12.4 °C 6 °C 1019.5 hPa SSE 22.5 km/h 19 km/h 65 % 0 mm
17:54 12.4 °C 5.6 °C 1019.5 hPa SSE 37 km/h 22.9 km/h 63 % 0 mm
17:59 12.2 °C 5.6 °C 1019.9 hPa SSE 35.2 km/h 28 km/h 64 % 0 mm
18:04 12.2 °C 5.4 °C 1019.9 hPa South 38.9 km/h 22.4 km/h 63 % 0 mm
18:09 12 °C 5.4 °C 1019.9 hPa South 31.5 km/h 20.1 km/h 64 % 0 mm
18:14 11.8 °C 5.4 °C 1019.9 hPa SSE 35.2 km/h 22.2 km/h 65 % 0 mm
18:19 11.7 °C 5.3 °C 1019.9 hPa SE 37 km/h 13 km/h 65 % 0 mm
18:24 11.5 °C 5.6 °C 1019.9 hPa SE 33.3 km/h 16.9 km/h 67 % 0 mm
18:29 11.2 °C 5.7 °C 1019.9 hPa North 27.8 km/h 11.6 km/h 69 % 0 mm
18:34 11.1 °C 6 °C 1019.9 hPa SSE 24.1 km/h 17.9 km/h 71 % 0 mm
18:39 11.1 °C 5.8 °C 1020.2 hPa SE 33.3 km/h 26.2 km/h 70 % 0 mm
18:44 11.1 °C 5.8 °C 1019.9 hPa SE 29 km/h 15 km/h 70 % 0 mm
18:49 11 °C 5.5 °C 1019.9 hPa North 29.6 km/h 20.3 km/h 69 % 0 mm
18:54 11 °C 5.5 °C 1019.9 hPa SE 27.8 km/h 19.6 km/h 69 % 0 mm
18:59 10.9 °C 5.5 °C 1019.9 hPa SSE 31.5 km/h 26.7 km/h 69 % 0 mm
19:04 10.9 °C 5.4 °C 1019.9 hPa SE 22.2 km/h 18.8 km/h 69 % 0 mm
19:09 10.8 °C 4.9 °C 1019.9 hPa SE 42.6 km/h 24.8 km/h 67 % 0 mm
19:14 10.8 °C 5.3 °C 1019.9 hPa SSE 22.2 km/h 18.5 km/h 69 % 0 mm
19:19 10.8 °C 5.5 °C 1019.9 hPa SE 31.5 km/h 19.3 km/h 70 % 0 mm
19:24 10.7 °C 5.4 °C 1019.9 hPa SSE 31.5 km/h 22.9 km/h 70 % 0 mm
19:29 10.7 °C 5.4 °C 1020.2 hPa SE 27.8 km/h 16.7 km/h 70 % 0 mm
19:34 10.6 °C 5.4 °C 1020.2 hPa SSE 22.2 km/h 17.4 km/h 70 % 0 mm
19:39 10.5 °C 5.4 °C 1020.2 hPa North 20.9 km/h 13 km/h 71 % 0 mm
19:44 10.4 °C 5.2 °C 1020.2 hPa SE 31.5 km/h 16.7 km/h 70 % 0 mm
19:49 10.3 °C 5.1 °C 1020.5 hPa SE 20.4 km/h 15 km/h 70 % 0 mm
19:54 10.3 °C 5.2 °C 1020.5 hPa SSE 22.2 km/h 14.6 km/h 71 % 0 mm
19:59 10.2 °C 5.3 °C 1020.5 hPa SSE 25.7 km/h 19.3 km/h 72 % 0 mm
20:04 10.1 °C 5.5 °C 1020.5 hPa North 20.4 km/h 11.4 km/h 73 % 0 mm
20:09 10 °C 5.6 °C 1020.5 hPa SSE 24.1 km/h 15.6 km/h 74 % 0 mm
20:14 10 °C 5.6 °C 1020.5 hPa SSE 24.1 km/h 11.6 km/h 74 % 0 mm
20:19 9.9 °C 5.7 °C 1020.5 hPa SSE 29.6 km/h 14.2 km/h 75 % 0 mm
20:24 9.9 °C 5.7 °C 1020.5 hPa SE 24.1 km/h 21.4 km/h 75 % 0 mm
20:29 9.8 °C 5.6 °C 1020.9 hPa SE 24.1 km/h 14 km/h 75 % 0 mm
20:34 9.8 °C 5.6 °C 1020.9 hPa South 18.5 km/h 13.7 km/h 75 % 0 mm
20:39 9.7 °C 5.5 °C 1020.9 hPa North 22.2 km/h 15 km/h 75 % 0 mm
20:44 9.6 °C 5.6 °C 1020.9 hPa SSE 17.7 km/h 7.4 km/h 76 % 0 mm
20:49 9.5 °C 5.5 °C 1021.2 hPa SSE 16.7 km/h 8.7 km/h 76 % 0 mm
20:54 9.4 °C 5.6 °C 1021.2 hPa SSE 18.5 km/h 13.7 km/h 77 % 0 mm
20:59 9.3 °C 5.6 °C 1021.2 hPa North 24.1 km/h 13.2 km/h 78 % 0 mm
21:04 9.2 °C 5.6 °C 1021.2 hPa North 20.4 km/h 10.8 km/h 78 % 0 mm
21:09 9.1 °C 5.7 °C 1021.6 hPa SSE 11.1 km/h 9.2 km/h 79 % 0 mm
21:14 9.1 °C 5.6 °C 1021.6 hPa North 20.4 km/h 14.8 km/h 79 % 0 mm
21:19 9 °C 5.6 °C 1021.6 hPa SSE 25.9 km/h 12.2 km/h 79 % 0 mm
21:24 8.9 °C 5.6 °C 1021.6 hPa SSE 22.2 km/h 14.5 km/h 80 % 0 mm
21:29 8.8 °C 5.6 °C 1021.6 hPa SSE 14.8 km/h 16.9 km/h 80 % 0 mm
21:34 8.8 °C 5.7 °C 1021.6 hPa North 20.4 km/h 13.4 km/h 81 % 0 mm
21:39 8.7 °C 5.7 °C 1021.6 hPa South 22.2 km/h 10.5 km/h 81 % 0 mm
21:44 8.6 °C 5.7 °C 1021.6 hPa South 14.8 km/h 8.7 km/h 82 % 0 mm
21:49 8.6 °C 5.7 °C 1021.9 hPa North 13 km/h 10.9 km/h 82 % 0 mm
21:54 8.5 °C 5.6 °C 1021.6 hPa SSE 16.7 km/h 10.8 km/h 82 % 0 mm
21:59 8.4 °C 5.5 °C 1021.9 hPa North 18.5 km/h 11.7 km/h 82 % 0 mm
22:04 8.4 °C 5.5 °C 1021.9 hPa North 24.1 km/h 12.2 km/h 82 % 0 mm
22:09 8.4 °C 5.5 °C 1021.9 hPa North 20.4 km/h 12.9 km/h 82 % 0 mm
22:14 8.4 °C 5.5 °C 1021.9 hPa SSE 17.7 km/h 13.4 km/h 82 % 0 mm
22:19 8.4 °C 5.5 °C 1021.9 hPa SSE 24.1 km/h 11.7 km/h 82 % 0 mm
22:24 8.4 °C 5.5 °C 1021.9 hPa SSE 18.5 km/h 11.6 km/h 82 % 0 mm
22:29 8.4 °C 5.3 °C 1021.9 hPa SSE 24.1 km/h 15.6 km/h 81 % 0 mm
22:34 8.3 °C 5.2 °C 1021.9 hPa North 22.2 km/h 9.7 km/h 81 % 0 mm
22:39 8.3 °C 5.1 °C 1021.9 hPa SSE 27.8 km/h 11.1 km/h 80 % 0 mm
22:44 8.3 °C 4.9 °C 1021.9 hPa SSE 11.1 km/h 6.8 km/h 79 % 0 mm
22:49 8.3 °C 5.1 °C 1021.9 hPa SE 22.2 km/h 15.3 km/h 80 % 0 mm
22:54 8.2 °C 4.6 °C 1021.9 hPa North 22.5 km/h 12.7 km/h 78 % 0 mm
22:59 8.4 °C 4.4 °C 1021.9 hPa North 20.4 km/h 15.3 km/h 76 % 0 mm
23:04 8.4 °C 4.4 °C 1022.2 hPa SE 18.5 km/h 14 km/h 76 % 0 mm
23:09 8.4 °C 4.4 °C 1022.2 hPa SE 24.1 km/h 13.7 km/h 76 % 0 mm
23:14 8.4 °C 4.2 °C 1022.2 hPa North 27.8 km/h 14 km/h 75 % 0 mm
23:19 8.4 °C 4.2 °C 1022.2 hPa SE 18.5 km/h 8.7 km/h 75 % 0 mm
23:24 8.3 °C 4.1 °C 1022.2 hPa SSE 29.6 km/h 16.9 km/h 75 % 0 mm
23:29 8.2 °C 4.1 °C 1022.2 hPa SE 18.5 km/h 11.3 km/h 75 % 0 mm
23:34 8.1 °C 4.1 °C 1022.2 hPa North 14.8 km/h 11.3 km/h 76 % 0 mm
23:39 7.9 °C 3.9 °C 1022.2 hPa North 18.5 km/h 11.1 km/h 76 % 0 mm
23:44 7.8 °C 4 °C 1022.2 hPa SSE 11.3 km/h 7.1 km/h 77 % 0 mm
23:49 7.7 °C 3.9 °C 1022.2 hPa North 18.5 km/h 11.4 km/h 77 % 0 mm
23:54 7.6 °C 3.9 °C 1022.2 hPa SE 20.4 km/h 7.7 km/h 78 % 0 mm
23:59 7.6 °C 3.9 °C 1022.2 hPa North 13 km/h 7.9 km/h 78 % 0 mm
Ararat Weather
Compliments of Weather Underground - 2 mb
Click here to send mail.


ABOUT

Live weather data from Ararat, Victoria, Australia, 3377
Data uploaded from Cumulus every 5 minutes to Weather Underground.
This site then downloads the raw data for formatting and display.
Metric and imperial data can be displayed. Graphs and historical data available.
Includes Sun and Moon times and rain image live from BOM.

Check out Ararat Weather on Facebook, Twitter and Google +

Help support ongoing costs by checking out the ads





Follow @AraratWeather